createdAt,value
2018-03-26T00:02:10.574Z,30.93
2018-03-26T00:04:37.299Z,29.27
2018-03-26T00:07:04.018Z,29.47
2018-03-26T00:09:30.804Z,28.90
2018-03-26T00:11:57.535Z,31.00
2018-03-26T00:14:24.276Z,29.57
2018-03-26T00:16:50.995Z,30.33
2018-03-26T00:19:17.722Z,32.37
2018-03-26T00:21:44.445Z,32.30
2018-03-26T00:24:11.182Z,30.00
2018-03-26T00:26:37.911Z,30.57
2018-03-26T00:29:04.653Z,29.63
2018-03-26T00:31:31.383Z,29.27
2018-03-26T00:33:58.097Z,28.80
2018-03-26T00:36:24.827Z,29.27
2018-03-26T00:38:51.580Z,29.73
2018-03-26T00:41:18.316Z,30.40
2018-03-26T00:43:45.037Z,30.23
2018-03-26T00:46:11.763Z,27.47
2018-03-26T00:48:38.515Z,29.33
2018-03-26T00:51:05.239Z,30.43
2018-03-26T00:53:37.856Z,29.93
2018-03-26T00:56:04.592Z,30.53
2018-03-26T00:58:31.335Z,29.80
2018-03-26T01:00:58.055Z,28.97
2018-03-26T01:03:24.778Z,27.80
2018-03-26T01:05:51.534Z,29.13
2018-03-26T01:08:18.261Z,29.67
2018-03-26T01:10:45.042Z,28.93
2018-03-26T01:13:11.745Z,29.93
2018-03-26T01:15:38.472Z,30.37
2018-03-26T01:18:05.208Z,29.27
2018-03-26T01:20:31.953Z,29.10
2018-03-26T01:22:58.729Z,30.37
2018-03-26T01:25:25.463Z,32.37
2018-03-26T01:27:52.190Z,30.53
2018-03-26T01:30:18.929Z,29.13
2018-03-26T01:32:45.676Z,28.67
2018-03-26T01:35:12.409Z,29.27
2018-03-26T01:37:39.165Z,29.37
2018-03-26T01:40:05.908Z,27.67
2018-03-26T01:42:32.648Z,28.53
2018-03-26T01:44:59.362Z,30.30
2018-03-26T01:47:26.092Z,29.80
2018-03-26T01:49:52.820Z,29.97
2018-03-26T01:52:19.534Z,27.57
2018-03-26T01:54:46.248Z,29.90
2018-03-26T01:57:12.976Z,28.27
2018-03-26T01:59:39.717Z,25.07
2018-03-26T02:02:06.483Z,29.60
2018-03-26T02:04:33.210Z,26.77
2018-03-26T02:06:59.941Z,26.90
2018-03-26T02:09:26.659Z,30.00
2018-03-26T02:11:53.631Z,29.37
2018-03-26T02:14:20.354Z,30.77
2018-03-26T02:16:47.085Z,28.70
2018-03-26T02:19:13.811Z,27.60
2018-03-26T02:21:40.580Z,31.30
2018-03-26T02:24:07.306Z,28.77
2018-03-26T02:26:34.031Z,30.30
2018-03-26T02:29:00.760Z,29.83
2018-03-26T02:31:27.487Z,28.47
2018-03-26T02:33:54.215Z,30.27
2018-03-26T02:36:20.960Z,29.57
2018-03-26T02:38:47.701Z,29.77
2018-03-26T02:41:14.429Z,30.90
2018-03-26T02:43:41.172Z,30.83
2018-03-26T02:46:07.899Z,29.23
2018-03-26T02:48:34.643Z,28.70
2018-03-26T02:51:01.390Z,29.23
2018-03-26T02:53:28.197Z,29.77
2018-03-26T02:55:54.931Z,29.00
2018-03-26T02:58:21.665Z,32.70
2018-03-26T03:00:48.513Z,30.80
2018-03-26T03:03:22.935Z,29.73
2018-03-26T03:05:49.652Z,30.60
2018-03-26T03:08:16.398Z,30.20
2018-03-26T03:10:43.128Z,29.40
2018-03-26T03:13:09.848Z,29.00
2018-03-26T03:15:36.592Z,30.13
2018-03-26T03:18:03.323Z,29.73
2018-03-26T03:20:30.116Z,29.33
2018-03-26T03:22:56.810Z,28.50
2018-03-26T03:25:23.587Z,29.00
2018-03-26T03:27:50.349Z,29.97
2018-03-26T03:30:17.083Z,29.90
2018-03-26T03:32:43.808Z,31.80
2018-03-26T03:35:10.543Z,27.93
2018-03-26T03:37:37.306Z,27.03
2018-03-26T03:40:04.085Z,31.20
2018-03-26T03:42:30.819Z,28.50
2018-03-26T03:44:57.560Z,29.70
2018-03-26T03:47:24.308Z,28.07
2018-03-26T03:49:51.040Z,28.53
2018-03-26T03:52:17.756Z,31.83
2018-03-26T03:54:44.525Z,30.73
2018-03-26T03:57:11.335Z,31.47
2018-03-26T03:59:38.080Z,28.80
2018-03-26T04:02:04.835Z,29.80
2018-03-26T04:04:31.572Z,28.73
2018-03-26T04:06:58.374Z,30.43
2018-03-26T04:09:25.100Z,30.67
2018-03-26T04:11:51.835Z,29.27
2018-03-26T04:14:18.562Z,29.13
2018-03-26T04:16:45.307Z,29.40
2018-03-26T04:19:12.034Z,30.97
2018-03-26T04:21:38.758Z,28.70
2018-03-26T04:24:05.504Z,31.23
2018-03-26T04:26:32.231Z,29.00
2018-03-26T04:28:58.961Z,29.40
2018-03-26T04:31:25.683Z,27.33
2018-03-26T04:33:52.423Z,29.17
2018-03-26T04:36:19.193Z,30.00
2018-03-26T04:38:45.920Z,29.97
2018-03-26T04:41:12.647Z,29.80
2018-03-26T04:43:39.382Z,27.30
2018-03-26T04:46:06.113Z,31.40
2018-03-26T04:48:32.853Z,30.20
2018-03-26T04:50:59.575Z,29.93
2018-03-26T04:53:27.202Z,30.40
2018-03-26T04:55:54.055Z,29.05
2018-03-26T04:58:20.784Z,28.95
2018-03-26T05:00:47.516Z,31.13
2018-03-26T05:03:14.889Z,33.17
2018-03-26T05:05:41.621Z,31.27
2018-03-26T05:08:08.356Z,32.13
2018-03-26T05:10:35.078Z,31.93
2018-03-26T05:13:01.794Z,33.50
2018-03-26T05:15:28.549Z,31.10
2018-03-26T05:17:55.305Z,30.92
2018-03-26T05:20:22.034Z,29.77
2018-03-26T05:22:48.850Z,28.83
2018-03-26T05:25:15.587Z,31.80
2018-03-26T05:27:42.314Z,30.07
2018-03-26T05:30:09.038Z,29.67
2018-03-26T05:32:35.767Z,29.43
2018-03-26T05:35:02.515Z,32.15
2018-03-26T05:37:29.241Z,32.17
2018-03-26T05:39:55.949Z,31.90
2018-03-26T05:42:22.695Z,34.30
2018-03-26T05:44:49.442Z,32.90
2018-03-26T05:47:16.189Z,34.27
2018-03-26T05:49:42.924Z,32.53
2018-03-26T05:52:09.693Z,33.10
2018-03-26T05:54:36.428Z,32.33
2018-03-26T05:57:03.155Z,32.93
2018-03-26T05:59:29.887Z,31.67
2018-03-26T06:01:56.622Z,31.27
2018-03-26T06:04:23.355Z,30.03
2018-03-26T06:06:50.102Z,32.30
2018-03-26T06:09:16.835Z,31.70
2018-03-26T06:11:43.713Z,31.80
2018-03-26T06:14:10.459Z,33.23
2018-03-26T06:16:43.114Z,31.23
2018-03-26T06:19:09.899Z,31.10
2018-03-26T06:21:36.661Z,33.47
2018-03-26T06:24:03.442Z,32.40
2018-03-26T06:26:30.207Z,32.67
2018-03-26T06:28:56.959Z,31.60
2018-03-26T06:31:23.727Z,31.90
2018-03-26T06:33:50.499Z,33.10
2018-03-26T06:36:20.994Z,32.83
2018-03-26T06:38:52.690Z,32.73
2018-03-26T06:41:19.434Z,31.57
2018-03-26T06:43:46.175Z,33.33
2018-03-26T06:46:12.939Z,32.23
2018-03-26T06:48:39.666Z,36.27
2018-03-26T06:51:06.396Z,31.60
2018-03-26T06:53:33.126Z,32.83
2018-03-26T06:55:59.938Z,34.17
2018-03-26T06:58:26.670Z,34.90
2018-03-26T07:00:53.597Z,32.47
2018-03-26T07:03:20.328Z,33.47
2018-03-26T07:05:47.041Z,33.83
2018-03-26T07:08:13.789Z,36.67
2018-03-26T07:10:40.524Z,37.67
2018-03-26T07:13:07.322Z,36.70
2018-03-26T07:15:34.049Z,37.77
2018-03-26T07:18:00.788Z,35.97
2018-03-26T07:20:27.722Z,35.00
2018-03-26T07:22:54.479Z,35.37
2018-03-26T07:25:21.202Z,35.20
2018-03-26T07:27:47.926Z,33.30
2018-03-26T07:30:14.745Z,37.40
2018-03-26T07:32:41.493Z,36.60
2018-03-26T07:35:08.218Z,37.53
2018-03-26T07:37:34.956Z,34.37
2018-03-26T07:40:01.728Z,36.70
2018-03-26T07:42:28.463Z,33.80
2018-03-26T07:44:55.204Z,33.23
2018-03-26T07:47:21.943Z,36.00
2018-03-26T07:49:48.681Z,35.93
2018-03-26T07:52:15.425Z,36.03
2018-03-26T07:54:42.160Z,36.40
2018-03-26T07:57:08.914Z,35.40
2018-03-26T07:59:35.651Z,31.90
2018-03-26T08:02:02.378Z,34.30
2018-03-26T08:04:29.116Z,34.20
2018-03-26T08:06:55.906Z,34.30
2018-03-26T08:09:22.630Z,34.80
2018-03-26T08:11:49.358Z,35.27
2018-03-26T08:14:16.091Z,33.37
2018-03-26T08:16:42.948Z,33.93
2018-03-26T08:19:09.648Z,35.27
2018-03-26T08:21:36.379Z,33.50
2018-03-26T08:24:03.117Z,32.70
2018-03-26T08:26:29.852Z,35.30
2018-03-26T08:28:56.591Z,35.40
2018-03-26T08:31:23.335Z,35.13
2018-03-26T08:33:50.045Z,34.97
2018-03-26T08:36:16.766Z,33.40
2018-03-26T08:38:43.485Z,35.30
2018-03-26T08:41:10.205Z,33.10
2018-03-26T08:43:36.944Z,33.80
2018-03-26T08:46:03.662Z,33.57
2018-03-26T08:48:30.388Z,32.23
2018-03-26T08:50:57.114Z,34.50
2018-03-26T08:53:23.862Z,35.07
2018-03-26T08:55:50.608Z,33.77
2018-03-26T08:58:17.351Z,34.20
2018-03-26T09:00:44.078Z,35.20
2018-03-26T09:03:10.811Z,35.30
2018-03-26T09:05:37.535Z,33.10
2018-03-26T09:08:04.269Z,34.97
2018-03-26T09:10:30.991Z,37.07
2018-03-26T09:12:57.766Z,36.73
2018-03-26T09:15:24.500Z,34.73
2018-03-26T09:17:51.222Z,35.83
2018-03-26T09:20:17.954Z,35.53
2018-03-26T09:22:44.714Z,36.53
2018-03-26T09:25:11.486Z,37.67
2018-03-26T09:27:38.218Z,37.37
2018-03-26T09:30:04.948Z,37.27
2018-03-26T09:32:31.674Z,36.77
2018-03-26T09:34:58.404Z,36.67
2018-03-26T09:37:25.151Z,36.97
2018-03-26T09:39:51.877Z,33.27
2018-03-26T09:42:18.606Z,35.97
2018-03-26T09:44:45.330Z,35.77
2018-03-26T09:47:12.082Z,34.50
2018-03-26T09:49:38.822Z,35.70
2018-03-26T09:52:05.567Z,36.27
2018-03-26T09:54:32.303Z,34.47
2018-03-26T09:56:59.040Z,35.47
2018-03-26T09:59:25.762Z,35.20
2018-03-26T10:01:57.489Z,36.00
2018-03-26T10:04:24.295Z,35.50
2018-03-26T10:06:51.049Z,34.50
2018-03-26T10:09:17.790Z,32.97
2018-03-26T10:11:44.552Z,31.97
2018-03-26T10:14:11.308Z,33.90
2018-03-26T10:16:38.043Z,34.60
2018-03-26T10:19:04.767Z,34.90
2018-03-26T10:21:31.523Z,34.20
2018-03-26T10:23:59.372Z,34.00
2018-03-26T10:26:26.144Z,32.97
2018-03-26T10:28:52.897Z,32.80
2018-03-26T10:31:19.620Z,34.80
2018-03-26T10:33:46.342Z,33.50
2018-03-26T10:36:13.065Z,37.33
2018-03-26T10:38:39.796Z,35.97
2018-03-26T10:41:06.539Z,34.60
2018-03-26T10:43:33.315Z,35.50
2018-03-26T10:46:00.503Z,34.10
2018-03-26T10:48:27.497Z,36.37
2018-03-26T10:50:54.219Z,36.57
2018-03-26T10:53:21.925Z,36.73
2018-03-26T10:55:48.696Z,35.00
2018-03-26T10:58:15.442Z,35.83
2018-03-26T11:00:42.182Z,34.13
2018-03-26T11:03:09.022Z,35.70
2018-03-26T11:05:35.739Z,36.07
2018-03-26T11:08:02.703Z,36.83
2018-03-26T11:10:29.439Z,35.93
2018-03-26T11:12:56.168Z,35.27
2018-03-26T11:15:23.016Z,38.20
2018-03-26T11:17:49.767Z,37.20
2018-03-26T11:20:16.489Z,36.60
2018-03-26T11:22:43.230Z,34.83
2018-03-26T11:25:09.967Z,36.33
2018-03-26T11:27:36.742Z,34.83
2018-03-26T11:30:03.531Z,36.93
2018-03-26T11:32:30.268Z,35.43
2018-03-26T11:34:56.993Z,35.40
2018-03-26T11:37:23.735Z,34.50
2018-03-26T11:39:50.488Z,36.10
2018-03-26T11:42:17.222Z,36.83
2018-03-26T11:44:43.951Z,35.30
2018-03-26T11:47:10.676Z,36.27
2018-03-26T11:49:37.408Z,35.00
2018-03-26T11:52:04.142Z,36.17
2018-03-26T11:54:30.879Z,36.80
2018-03-26T11:56:57.689Z,37.00
2018-03-26T11:59:24.416Z,34.83
2018-03-26T12:01:51.173Z,34.03
2018-03-26T12:04:17.898Z,35.23
2018-03-26T12:06:44.632Z,36.77
2018-03-26T12:09:11.346Z,35.50
2018-03-26T12:11:38.135Z,35.40
2018-03-26T12:14:04.903Z,35.30
2018-03-26T12:16:31.654Z,34.97
2018-03-26T12:18:58.386Z,35.63
2018-03-26T12:21:25.108Z,38.27
2018-03-26T12:23:57.683Z,36.47
2018-03-26T12:26:24.406Z,39.57
2018-03-26T12:28:57.103Z,37.40
2018-03-26T12:31:23.846Z,35.80
2018-03-26T12:33:56.654Z,36.10
2018-03-26T12:36:23.387Z,36.77
2018-03-26T12:38:50.114Z,35.77
2018-03-26T12:41:16.853Z,36.97
2018-03-26T12:43:43.583Z,37.67
2018-03-26T12:46:16.255Z,38.43
2018-03-26T12:48:43.007Z,37.20
2018-03-26T12:51:15.544Z,36.17
2018-03-26T12:53:42.272Z,36.43
2018-03-26T12:56:08.998Z,36.37
2018-03-26T12:58:38.554Z,34.40
2018-03-26T13:01:11.372Z,35.73
2018-03-26T13:03:38.131Z,37.97
2018-03-26T13:06:04.904Z,36.20
2018-03-26T13:08:31.637Z,36.00
2018-03-26T13:10:58.377Z,36.60
2018-03-26T13:13:25.106Z,36.13
2018-03-26T13:15:51.846Z,36.00
2018-03-26T13:18:18.580Z,37.90
2018-03-26T13:20:45.325Z,37.37
2018-03-26T13:23:12.064Z,35.97
2018-03-26T13:25:38.795Z,36.33
2018-03-26T13:28:05.523Z,35.90
2018-03-26T13:30:32.246Z,36.50
2018-03-26T13:32:59.001Z,36.57
2018-03-26T13:35:25.736Z,35.07
2018-03-26T13:37:52.474Z,36.53
2018-03-26T13:40:19.209Z,35.77
2018-03-26T13:42:45.949Z,34.90
2018-03-26T13:45:12.689Z,36.77
2018-03-26T13:47:39.516Z,35.90
2018-03-26T13:50:06.292Z,37.27
2018-03-26T13:52:33.044Z,36.13
2018-03-26T13:54:59.774Z,38.07
2018-03-26T13:57:26.522Z,36.57
2018-03-26T13:59:53.243Z,35.60
2018-03-26T14:02:20.004Z,36.20
2018-03-26T14:04:46.759Z,37.20
2018-03-26T14:07:13.491Z,37.07
2018-03-26T14:09:45.971Z,35.27
2018-03-26T14:12:18.510Z,36.40
2018-03-26T14:14:51.247Z,35.97
2018-03-26T14:17:23.840Z,36.30
2018-03-26T14:19:50.611Z,37.53
2018-03-26T14:22:17.349Z,34.40
2018-03-26T14:24:44.098Z,38.60
2018-03-26T14:27:10.838Z,37.40
2018-03-26T14:29:37.582Z,37.50
2018-03-26T14:32:04.311Z,36.87
2018-03-26T14:34:31.054Z,38.23
2018-03-26T14:36:57.815Z,37.50
2018-03-26T14:39:24.561Z,35.87
2018-03-26T14:41:51.326Z,35.97
2018-03-26T14:44:18.072Z,36.80
2018-03-26T14:46:44.811Z,35.43
2018-03-26T14:49:11.574Z,35.73
2018-03-26T14:51:38.305Z,37.80
2018-03-26T14:54:05.034Z,37.13
2018-03-26T14:56:31.778Z,34.00
2018-03-26T14:58:58.516Z,37.17
2018-03-26T15:01:25.238Z,37.23
2018-03-26T15:03:57.637Z,37.30
2018-03-26T15:06:24.385Z,36.20
2018-03-26T15:08:51.124Z,34.33
2018-03-26T15:11:17.895Z,35.67
2018-03-26T15:13:44.618Z,34.10
2018-03-26T15:16:11.356Z,37.13
2018-03-26T15:18:38.099Z,36.33
2018-03-26T15:21:04.828Z,37.20
2018-03-26T15:23:31.621Z,38.70
2018-03-26T15:25:58.369Z,37.87
2018-03-26T15:28:25.102Z,37.37
2018-03-26T15:30:51.830Z,34.57
2018-03-26T15:33:18.569Z,36.77
2018-03-26T15:35:45.313Z,36.17
2018-03-26T15:38:12.061Z,35.20
2018-03-26T15:40:39.441Z,37.53
2018-03-26T15:43:06.187Z,37.10
2018-03-26T15:45:32.955Z,36.50
2018-03-26T15:47:59.694Z,36.00
2018-03-26T15:50:26.442Z,36.27
2018-03-26T15:52:53.211Z,35.07
2018-03-26T15:55:19.930Z,37.87
2018-03-26T15:57:46.675Z,36.23
2018-03-26T16:00:13.426Z,34.30
2018-03-26T16:03:00.971Z,35.97
2018-03-26T16:05:27.738Z,32.50
2018-03-26T16:07:54.516Z,35.60
2018-03-26T16:10:21.257Z,35.03
2018-03-26T16:12:47.990Z,33.90
2018-03-26T16:15:14.726Z,33.17
2018-03-26T16:17:41.850Z,33.97
2018-03-26T16:20:08.576Z,33.73
2018-03-26T16:22:35.305Z,31.97
2018-03-26T16:25:02.036Z,32.13
2018-03-26T16:27:28.789Z,32.33
2018-03-26T16:29:55.519Z,32.20
2018-03-26T16:32:22.264Z,32.00
2018-03-26T16:34:49.009Z,32.60
2018-03-26T16:37:15.763Z,30.27
2018-03-26T16:39:42.614Z,32.20
2018-03-26T16:42:15.351Z,31.23
2018-03-26T16:44:42.096Z,32.30
2018-03-26T16:47:08.829Z,32.57
2018-03-26T16:49:35.567Z,30.73
2018-03-26T16:52:02.280Z,31.00
2018-03-26T16:54:29.009Z,32.17
2018-03-26T16:56:55.733Z,31.60
2018-03-26T16:59:22.593Z,30.83
2018-03-26T17:01:49.339Z,30.83
2018-03-26T17:04:16.080Z,30.30
2018-03-26T17:06:42.815Z,31.67
2018-03-26T17:09:09.657Z,30.23
2018-03-26T17:11:36.410Z,32.50
2018-03-26T17:14:03.186Z,31.57
2018-03-26T17:16:29.962Z,31.37
2018-03-26T17:18:56.788Z,32.07
2018-03-26T17:21:23.560Z,30.00
2018-03-26T17:23:50.304Z,31.30
2018-03-26T17:26:17.042Z,29.73
2018-03-26T17:28:43.795Z,31.20
2018-03-26T17:31:10.540Z,30.77
2018-03-26T17:33:37.308Z,31.17
2018-03-26T17:36:04.094Z,33.13
2018-03-26T17:38:30.846Z,31.00
2018-03-26T17:40:57.597Z,31.23
2018-03-26T17:43:24.372Z,33.70
2018-03-26T17:45:51.115Z,30.60
2018-03-26T17:48:17.883Z,31.77
2018-03-26T17:50:44.611Z,34.10
2018-03-26T17:53:11.409Z,32.00
2018-03-26T17:55:38.160Z,31.77
2018-03-26T17:58:04.900Z,30.20
2018-03-26T18:00:31.645Z,34.20
2018-03-26T18:02:58.407Z,31.17
2018-03-26T18:05:25.315Z,31.73
2018-03-26T18:07:52.068Z,32.63
2018-03-26T18:10:18.830Z,29.13
2018-03-26T18:12:45.611Z,33.20
2018-03-26T18:15:12.396Z,30.70
2018-03-26T18:17:39.152Z,35.30
2018-03-26T18:20:05.938Z,34.30
2018-03-26T18:22:32.719Z,36.90
2018-03-26T18:24:59.453Z,37.60
2018-03-26T18:27:26.183Z,36.47
2018-03-26T18:29:52.947Z,37.53
2018-03-26T18:32:19.694Z,36.53
2018-03-26T18:34:46.437Z,35.90
2018-03-26T18:37:13.183Z,34.10
2018-03-26T18:39:39.983Z,34.77
2018-03-26T18:42:06.804Z,35.77
2018-03-26T18:44:33.544Z,33.63
2018-03-26T18:47:00.307Z,31.57
2018-03-26T18:49:27.214Z,32.37
2018-03-26T18:51:56.337Z,31.60
2018-03-26T18:54:23.078Z,31.90
2018-03-26T18:56:54.198Z,31.87
2018-03-26T18:59:21.240Z,31.87
2018-03-26T19:01:47.981Z,32.97
2018-03-26T19:04:14.726Z,32.87
2018-03-26T19:06:41.471Z,32.73
2018-03-26T19:09:10.651Z,31.00
2018-03-26T19:11:37.482Z,33.60
2018-03-26T19:14:04.263Z,32.37
2018-03-26T19:16:34.598Z,33.00
2018-03-26T19:19:01.581Z,32.80
2018-03-26T19:21:28.343Z,34.20
2018-03-26T19:23:55.081Z,35.00
2018-03-26T19:26:21.872Z,32.83
2018-03-26T19:28:49.967Z,31.83
2018-03-26T19:31:16.733Z,33.60
2018-03-26T19:33:43.519Z,32.00
2018-03-26T19:36:10.707Z,32.60
2018-03-26T19:38:46.468Z,30.63
2018-03-26T19:41:16.167Z,33.85
2018-03-26T19:43:43.823Z,34.60
2018-03-26T19:46:10.690Z,36.00
2018-03-26T19:48:38.010Z,32.20
2018-03-26T19:51:04.762Z,32.43
2018-03-26T19:53:31.507Z,33.40
2018-03-26T19:55:58.523Z,33.00
2018-03-26T19:58:26.112Z,32.27
2018-03-26T20:00:52.905Z,32.27
2018-03-26T20:03:19.662Z,33.30
2018-03-26T20:05:46.378Z,33.93
2018-03-26T20:08:13.698Z,30.90
2018-03-26T20:10:40.474Z,34.07
2018-03-26T20:13:07.354Z,34.17
2018-03-26T20:15:34.096Z,33.70
2018-03-26T20:18:00.860Z,33.80
2018-03-26T20:20:27.590Z,32.70
2018-03-26T20:22:54.373Z,34.77
2018-03-26T20:25:21.107Z,33.07
2018-03-26T20:27:47.871Z,32.80
2018-03-26T20:30:14.616Z,35.03
2018-03-26T20:32:41.351Z,33.07
2018-03-26T20:35:08.106Z,34.67
2018-03-26T20:37:34.851Z,33.77
2018-03-26T20:40:01.604Z,32.60
2018-03-26T20:42:28.366Z,32.63
2018-03-26T20:44:55.101Z,32.50
2018-03-26T20:47:21.830Z,32.37
2018-03-26T20:49:48.552Z,32.07
2018-03-26T20:52:15.290Z,35.20
2018-03-26T20:54:42.019Z,37.00
2018-03-26T20:57:08.746Z,39.97
2018-03-26T20:59:35.470Z,35.57
2018-03-26T21:02:02.226Z,37.47
2018-03-26T21:04:28.956Z,38.83
2018-03-26T21:06:55.698Z,35.20
2018-03-26T21:09:22.433Z,36.00
2018-03-26T21:11:49.182Z,35.83
2018-03-26T21:14:15.917Z,36.60
2018-03-26T21:16:42.642Z,37.17
2018-03-26T21:19:09.382Z,35.87
2018-03-26T21:21:36.112Z,35.93
2018-03-26T21:24:02.854Z,37.20
2018-03-26T21:26:29.596Z,37.17
2018-03-26T21:28:56.335Z,36.63
2018-03-26T21:31:23.077Z,36.20
2018-03-26T21:33:50.534Z,37.37
2018-03-26T21:36:17.263Z,37.83
2018-03-26T21:38:50.528Z,37.07
2018-03-26T21:41:19.130Z,37.67
2018-03-26T21:43:45.869Z,36.73
2018-03-26T21:46:12.615Z,35.23
2018-03-26T21:48:40.404Z,36.27
2018-03-26T21:51:08.132Z,35.90
2018-03-26T21:53:34.873Z,35.60
2018-03-26T21:56:01.641Z,36.20
2018-03-26T21:58:28.490Z,37.00
2018-03-26T22:00:55.236Z,37.00
2018-03-26T22:03:21.975Z,36.60
2018-03-26T22:05:48.705Z,36.83
2018-03-26T22:08:15.438Z,36.30
2018-03-26T22:10:42.158Z,37.80
2018-03-26T22:13:08.860Z,36.00
2018-03-26T22:15:35.583Z,37.53
2018-03-26T22:18:02.326Z,35.27
2018-03-26T22:20:29.026Z,37.60
2018-03-26T22:22:55.740Z,36.87
2018-03-26T22:25:22.480Z,36.00
2018-03-26T22:27:49.154Z,37.23
2018-03-26T22:30:15.842Z,35.17
2018-03-26T22:32:42.535Z,37.37
2018-03-26T22:35:09.229Z,36.57
2018-03-26T22:37:35.925Z,35.57
2018-03-26T22:40:02.691Z,35.83
2018-03-26T22:42:29.419Z,38.27
2018-03-26T22:44:56.137Z,36.83
2018-03-26T22:47:22.867Z,40.93
2018-03-26T22:49:49.599Z,41.33
2018-03-26T22:52:16.359Z,39.00
2018-03-26T22:54:43.081Z,41.10
2018-03-26T22:57:09.777Z,43.03
2018-03-26T22:59:36.499Z,41.97
2018-03-26T23:02:03.234Z,42.23
2018-03-26T23:04:29.972Z,41.80
2018-03-26T23:06:56.698Z,42.47
2018-03-26T23:09:23.423Z,43.67
2018-03-26T23:11:50.142Z,43.80
2018-03-26T23:14:16.871Z,47.00
2018-03-26T23:16:43.621Z,45.23
2018-03-26T23:19:10.351Z,48.07
2018-03-26T23:21:37.070Z,46.97
2018-03-26T23:24:03.824Z,45.27
2018-03-26T23:26:30.546Z,41.97
2018-03-26T23:28:57.332Z,44.80
2018-03-26T23:31:24.075Z,41.97
2018-03-26T23:33:50.796Z,37.40
2018-03-26T23:36:17.561Z,31.63
2018-03-26T23:38:44.321Z,32.20
2018-03-26T23:41:11.056Z,33.57
2018-03-26T23:43:37.774Z,32.13
2018-03-26T23:46:04.498Z,33.10
2018-03-26T23:48:31.252Z,32.80
2018-03-26T23:50:57.982Z,31.87
2018-03-26T23:53:24.695Z,30.53
2018-03-26T23:55:51.402Z,29.87
2018-03-26T23:58:18.130Z,32.77
